createdAt,value
2023-05-07T00:00:27.695Z,11.30
2023-05-07T00:03:30.600Z,9.07
2023-05-07T00:06:34.754Z,9.50
2023-05-07T00:09:38.419Z,11.37
2023-05-07T00:12:42.716Z,8.73
2023-05-07T00:15:45.459Z,8.33
2023-05-07T00:18:48.266Z,8.23
2023-05-07T00:21:51.058Z,6.77
2023-05-07T00:24:53.797Z,7.60
2023-05-07T00:27:58.511Z,8.37
2023-05-07T00:31:01.222Z,7.40
2023-05-07T00:34:03.994Z,8.50
2023-05-07T00:37:08.313Z,7.37
2023-05-07T00:40:11.854Z,7.23
2023-05-07T00:43:17.269Z,8.47
2023-05-07T00:46:22.200Z,7.33
2023-05-07T00:49:29.351Z,9.53
2023-05-07T00:52:32.279Z,8.40
2023-05-07T00:55:35.323Z,7.67
2023-05-07T00:58:40.264Z,8.87
2023-05-07T01:01:43.287Z,8.67
2023-05-07T01:04:46.460Z,7.67
2023-05-07T01:07:50.873Z,7.63
2023-05-07T01:10:54.700Z,7.47
2023-05-07T01:14:00.916Z,7.90
2023-05-07T01:17:03.968Z,7.77
2023-05-07T01:20:09.066Z,8.20
2023-05-07T01:23:13.727Z,8.67
2023-05-07T01:26:17.270Z,8.27
2023-05-07T01:29:20.187Z,8.70
2023-05-07T01:32:29.538Z,7.70
2023-05-07T01:35:37.952Z,7.90
2023-05-07T01:38:43.958Z,8.00
2023-05-07T01:41:48.486Z,8.23
2023-05-07T01:44:51.371Z,8.70
2023-05-07T01:47:55.163Z,7.73
2023-05-07T01:50:58.165Z,8.60
2023-05-07T01:54:02.359Z,8.87
2023-05-07T01:57:05.464Z,7.77
2023-05-07T02:00:10.084Z,8.93
2023-05-07T02:03:13.776Z,8.57
2023-05-07T02:06:18.079Z,8.80
2023-05-07T02:09:23.102Z,8.20
2023-05-07T02:12:26.070Z,7.53
2023-05-07T02:15:28.915Z,8.93
2023-05-07T02:18:33.010Z,9.03
2023-05-07T02:21:35.928Z,8.07
2023-05-07T02:24:40.114Z,8.50
2023-05-07T02:27:42.919Z,8.13
2023-05-07T02:30:46.084Z,8.40
2023-05-07T02:33:48.939Z,8.03
2023-05-07T02:36:51.841Z,7.77
2023-05-07T02:39:56.266Z,7.70
2023-05-07T02:42:59.106Z,7.43
2023-05-07T02:46:06.506Z,7.33
2023-05-07T02:49:09.430Z,8.47
2023-05-07T02:52:12.310Z,7.73
2023-05-07T02:55:16.779Z,8.13
2023-05-07T02:58:19.635Z,7.97
2023-05-07T03:01:22.811Z,8.17
2023-05-07T03:04:25.775Z,8.10
2023-05-07T03:07:28.612Z,10.40
2023-05-07T03:10:32.832Z,7.77
2023-05-07T03:13:35.801Z,7.73
2023-05-07T03:16:40.120Z,7.60
2023-05-07T03:19:42.934Z,8.07
2023-05-07T03:22:45.825Z,7.53
2023-05-07T03:25:50.505Z,8.03
2023-05-07T03:28:53.345Z,7.77
2023-05-07T03:31:56.322Z,8.07
2023-05-07T03:34:59.230Z,7.80
2023-05-07T03:38:02.058Z,7.33
2023-05-07T03:41:06.330Z,8.03
2023-05-07T03:44:09.361Z,8.30
2023-05-07T03:47:12.232Z,7.10
2023-05-07T03:50:15.197Z,7.27
2023-05-07T03:53:18.031Z,8.53
2023-05-07T03:56:22.868Z,7.77
2023-05-07T03:59:25.785Z,8.23
2023-05-07T04:02:28.778Z,8.00
2023-05-07T04:05:32.365Z,6.97
2023-05-07T04:08:35.228Z,7.50
2023-05-07T04:11:41.126Z,8.80
2023-05-07T04:14:44.073Z,7.17
2023-05-07T04:17:46.994Z,7.60
2023-05-07T04:20:50.306Z,8.83
2023-05-07T04:23:53.257Z,8.20
2023-05-07T04:26:57.448Z,7.67
2023-05-07T04:30:01.658Z,8.77
2023-05-07T04:33:04.711Z,7.90
2023-05-07T04:36:07.938Z,7.57
2023-05-07T04:39:11.709Z,9.73
2023-05-07T04:42:18.726Z,7.40
2023-05-07T04:45:21.994Z,7.93
2023-05-07T04:48:24.854Z,8.60
2023-05-07T04:51:29.014Z,9.17
2023-05-07T04:54:31.875Z,7.40
2023-05-07T04:57:36.129Z,7.70
2023-05-07T05:00:39.791Z,7.63
2023-05-07T05:03:42.724Z,9.17
2023-05-07T05:06:45.798Z,8.47
2023-05-07T05:09:48.877Z,8.17
2023-05-07T05:12:53.153Z,8.60
2023-05-07T05:15:56.059Z,9.30
2023-05-07T05:18:58.917Z,8.63
2023-05-07T05:22:02.274Z,8.60
2023-05-07T05:25:05.762Z,7.83
2023-05-07T05:28:09.948Z,7.87
2023-05-07T05:31:12.936Z,8.77
2023-05-07T05:34:16.682Z,7.13
2023-05-07T05:37:19.592Z,7.90
2023-05-07T05:40:22.486Z,6.80
2023-05-07T05:43:26.760Z,6.80
2023-05-07T05:46:29.718Z,8.23
2023-05-07T05:49:32.639Z,6.93
2023-05-07T05:52:35.509Z,7.90
2023-05-07T05:55:38.442Z,7.37
2023-05-07T05:58:42.905Z,7.43
2023-05-07T06:01:46.352Z,9.97
2023-05-07T06:04:49.324Z,7.50
2023-05-07T06:07:52.743Z,7.07
2023-05-07T06:10:56.010Z,6.53
2023-05-07T06:14:00.607Z,6.10
2023-05-07T06:17:03.952Z,5.80
2023-05-07T06:20:08.076Z,6.10
2023-05-07T06:23:11.324Z,5.43
2023-05-07T06:26:14.593Z,6.33
2023-05-07T06:29:19.193Z,5.47
2023-05-07T06:32:22.522Z,5.80
2023-05-07T06:35:25.821Z,6.20
2023-05-07T06:38:29.064Z,5.50
2023-05-07T06:41:32.331Z,5.53
2023-05-07T06:44:36.938Z,5.10
2023-05-07T06:47:40.226Z,4.50
2023-05-07T06:50:44.500Z,5.70
2023-05-07T06:53:47.750Z,10.60
2023-05-07T06:56:51.009Z,3.67
2023-05-07T06:59:55.586Z,3.57
2023-05-07T07:03:00.433Z,3.90
2023-05-07T07:06:04.291Z,3.67
2023-05-07T07:09:07.580Z,4.40
2023-05-07T07:12:10.862Z,3.43
2023-05-07T07:15:15.930Z,2.90
2023-05-07T07:18:19.187Z,4.73
2023-05-07T07:21:22.432Z,3.27
2023-05-07T07:24:25.794Z,3.13
2023-05-07T07:27:29.162Z,3.17
2023-05-07T07:30:33.764Z,3.10
2023-05-07T07:33:37.029Z,3.43
2023-05-07T07:36:46.134Z,6.90
2023-05-07T07:39:50.156Z,3.00
2023-05-07T07:42:53.448Z,3.00
2023-05-07T07:45:57.679Z,3.13
2023-05-07T07:49:01.058Z,3.10
2023-05-07T07:52:04.037Z,3.13
2023-05-07T07:55:08.200Z,4.20
2023-05-07T07:58:11.111Z,5.85
2023-05-07T08:01:15.426Z,4.97
2023-05-07T08:04:18.339Z,4.53
2023-05-07T08:07:23.680Z,2.87
2023-05-07T08:10:26.539Z,7.63
2023-05-07T08:13:29.523Z,2.67
2023-05-07T08:16:33.895Z,2.33
2023-05-07T08:19:36.812Z,3.53
2023-05-07T08:22:39.972Z,2.97
2023-05-07T08:25:43.529Z,2.53
2023-05-07T08:28:46.505Z,3.22
2023-05-07T08:31:50.726Z,2.95
2023-05-07T08:34:53.661Z,4.93
2023-05-07T08:37:56.632Z,3.50
2023-05-07T08:40:59.520Z,2.22
2023-05-07T08:44:05.222Z,2.05
2023-05-07T08:47:09.709Z,2.47
2023-05-07T08:50:13.620Z,2.53
2023-05-07T08:53:18.391Z,2.80
2023-05-07T08:56:22.646Z,3.20
2023-05-07T08:59:25.713Z,3.17
2023-05-07T09:02:30.018Z,9.35
2023-05-07T09:05:32.920Z,4.53
2023-05-07T09:08:37.096Z,11.27
2023-05-07T09:11:40.006Z,5.35
2023-05-07T09:14:42.908Z,3.80
2023-05-07T09:17:47.632Z,4.30
2023-05-07T09:20:50.583Z,3.60
2023-05-07T09:23:54.369Z,3.20
2023-05-07T09:27:00.130Z,3.13
2023-05-07T09:30:07.162Z,2.35
2023-05-07T09:33:11.509Z,2.38
2023-05-07T09:36:14.519Z,2.70
2023-05-07T09:39:17.460Z,1.98
2023-05-07T09:42:25.490Z,2.33
2023-05-07T09:45:29.004Z,2.30
2023-05-07T09:48:36.768Z,1.88
2023-05-07T09:51:44.657Z,2.38
2023-05-07T09:54:50.841Z,3.95
2023-05-07T09:57:55.070Z,1.75
2023-05-07T10:00:59.571Z,2.45
2023-05-07T10:04:05.260Z,3.00
2023-05-07T10:07:09.197Z,1.40
2023-05-07T10:10:13.139Z,2.20
2023-05-07T10:13:16.527Z,1.90
2023-05-07T10:16:20.039Z,1.35
2023-05-07T10:19:27.101Z,2.70
2023-05-07T10:22:31.415Z,1.75
2023-05-07T10:25:35.176Z,1.65
2023-05-07T10:28:41.674Z,2.40
2023-05-07T10:31:56.234Z,1.88
2023-05-07T10:35:04.509Z,2.03
2023-05-07T10:38:08.072Z,2.72
2023-05-07T10:41:11.417Z,1.77
2023-05-07T10:44:26.664Z,1.67
2023-05-07T10:47:29.660Z,2.28
2023-05-07T10:50:34.002Z,1.45
2023-05-07T10:53:36.927Z,2.00
2023-05-07T10:56:40.934Z,2.35
2023-05-07T10:59:43.837Z,1.85
2023-05-07T11:03:09.391Z,3.85
2023-05-07T11:06:15.994Z,3.33
2023-05-07T11:09:18.894Z,2.15
2023-05-07T11:12:52.853Z,2.55
2023-05-07T11:15:56.077Z,1.85
2023-05-07T11:18:58.937Z,1.67
2023-05-07T11:22:03.516Z,1.83
2023-05-07T11:25:07.324Z,3.08
2023-05-07T11:28:12.178Z,1.90
2023-05-07T11:31:15.914Z,2.35
2023-05-07T11:34:23.712Z,2.83
2023-05-07T11:37:30.716Z,1.73
2023-05-07T11:40:33.708Z,1.75
2023-05-07T11:43:37.110Z,2.20
2023-05-07T11:46:45.155Z,2.03
2023-05-07T11:49:49.469Z,2.30
2023-05-07T11:52:54.193Z,2.38
2023-05-07T11:55:57.815Z,2.30
2023-05-07T11:59:00.673Z,1.85
2023-05-07T12:02:04.086Z,1.80
2023-05-07T12:05:07.467Z,2.80
2023-05-07T12:08:16.219Z,4.00
2023-05-07T12:11:26.069Z,1.92
2023-05-07T12:14:30.665Z,1.52
2023-05-07T12:17:33.856Z,4.00
2023-05-07T12:20:37.633Z,1.83
2023-05-07T12:23:42.286Z,1.73
2023-05-07T12:26:46.031Z,1.27
2023-05-07T12:29:50.338Z,2.13
2023-05-07T12:32:55.383Z,2.05
2023-05-07T12:35:58.396Z,1.33
2023-05-07T12:39:03.418Z,2.33
2023-05-07T12:42:06.984Z,5.85
2023-05-07T12:45:11.457Z,5.22
2023-05-07T12:48:14.763Z,4.93
2023-05-07T12:51:18.088Z,9.48
2023-05-07T12:54:32.110Z,4.45
2023-05-07T12:57:40.716Z,12.65
2023-05-07T13:00:44.436Z,3.00
2023-05-07T13:03:51.599Z,4.65
2023-05-07T13:06:54.816Z,1.80
2023-05-07T13:09:59.304Z,5.03
2023-05-07T13:13:02.581Z,3.22
2023-05-07T13:16:07.291Z,1.30
2023-05-07T13:19:10.266Z,2.45
2023-05-07T13:22:13.203Z,1.30
2023-05-07T13:25:17.734Z,2.70
2023-05-07T13:28:21.359Z,2.35
2023-05-07T13:31:24.553Z,1.65
2023-05-07T13:34:28.055Z,1.92
2023-05-07T13:37:31.390Z,2.22
2023-05-07T13:40:36.055Z,1.60
2023-05-07T13:43:39.343Z,2.55
2023-05-07T13:46:42.720Z,1.83
2023-05-07T13:49:45.594Z,1.73
2023-05-07T13:52:51.529Z,1.75
2023-05-07T13:55:55.835Z,2.03
2023-05-07T13:59:00.487Z,2.20
2023-05-07T14:02:04.062Z,2.38
2023-05-07T14:05:07.837Z,2.30
2023-05-07T14:08:11.813Z,2.35
2023-05-07T14:11:16.158Z,1.73
2023-05-07T14:14:19.174Z,2.17
2023-05-07T14:17:24.140Z,5.18
2023-05-07T14:20:27.830Z,10.35
2023-05-07T14:23:30.776Z,3.40
2023-05-07T14:26:35.067Z,5.10
2023-05-07T14:29:37.962Z,2.45
2023-05-07T14:32:41.068Z,2.90
2023-05-07T14:35:48.411Z,2.55
2023-05-07T14:38:51.423Z,2.42
2023-05-07T14:41:57.067Z,2.40
2023-05-07T14:45:00.349Z,2.58
2023-05-07T14:48:03.562Z,2.60
2023-05-07T14:51:07.535Z,2.30
2023-05-07T14:54:10.759Z,2.38
2023-05-07T14:57:17.229Z,2.60
2023-05-07T15:00:20.757Z,2.45
2023-05-07T15:03:24.210Z,1.88
2023-05-07T15:06:27.840Z,1.85
2023-05-07T15:09:31.667Z,2.40
2023-05-07T15:12:36.115Z,3.05
2023-05-07T15:15:40.267Z,1.63
2023-05-07T15:18:43.147Z,1.90
2023-05-07T15:21:46.244Z,2.58
2023-05-07T15:24:49.154Z,3.15
2023-05-07T15:27:53.410Z,1.70
2023-05-07T15:30:56.828Z,4.95
2023-05-07T15:33:59.819Z,1.92
2023-05-07T15:37:02.762Z,1.55
2023-05-07T15:40:07.683Z,1.60
2023-05-07T15:43:14.154Z,1.63
2023-05-07T15:46:21.329Z,1.55
2023-05-07T15:49:24.319Z,1.23
2023-05-07T15:52:28.349Z,0.93
2023-05-07T15:55:32.069Z,1.15
2023-05-07T15:58:36.871Z,1.52
2023-05-07T16:01:41.136Z,1.00
2023-05-07T16:04:44.076Z,1.17
2023-05-07T16:07:47.543Z,1.42
2023-05-07T16:10:50.411Z,1.45
2023-05-07T16:13:54.612Z,1.75
2023-05-07T16:16:57.931Z,1.65
2023-05-07T16:20:02.078Z,1.48
2023-05-07T16:23:05.016Z,2.30
2023-05-07T16:26:07.894Z,2.30
2023-05-07T16:29:12.086Z,1.45
2023-05-07T16:32:14.968Z,1.23
2023-05-07T16:35:17.913Z,1.40
2023-05-07T16:38:20.843Z,1.55
2023-05-07T16:41:24.258Z,1.50
2023-05-07T16:44:28.546Z,4.93
2023-05-07T16:47:31.708Z,1.25
2023-05-07T16:50:34.600Z,1.27
2023-05-07T16:53:37.460Z,1.20
2023-05-07T16:56:42.176Z,2.20
2023-05-07T16:59:46.393Z,1.30
2023-05-07T17:02:49.335Z,4.10
2023-05-07T17:05:53.401Z,5.22
2023-05-07T17:08:56.284Z,8.48
2023-05-07T17:11:59.181Z,3.50
2023-05-07T17:15:03.496Z,4.00
2023-05-07T17:18:06.838Z,4.60
2023-05-07T17:21:09.756Z,18.25
2023-05-07T17:24:12.951Z,5.00
2023-05-07T17:27:16.004Z,6.63
2023-05-07T17:30:20.275Z,8.85
2023-05-07T17:33:23.159Z,1.90
2023-05-07T17:36:26.408Z,2.00
2023-05-07T17:39:29.322Z,1.58
2023-05-07T17:42:32.918Z,8.38
2023-05-07T17:45:37.322Z,4.07
2023-05-07T17:48:40.364Z,3.00
2023-05-07T17:51:53.974Z,3.20
2023-05-07T17:54:57.657Z,1.80
2023-05-07T17:58:00.720Z,1.75
2023-05-07T18:01:05.288Z,27.10
2023-05-07T18:04:08.257Z,1.80
2023-05-07T18:07:11.343Z,1.45
2023-05-07T18:10:14.536Z,1.92
2023-05-07T18:13:17.684Z,1.77
2023-05-07T18:16:22.199Z,1.92
2023-05-07T18:19:25.825Z,2.33
2023-05-07T18:22:28.871Z,1.67
2023-05-07T18:25:31.772Z,2.13
2023-05-07T18:28:34.608Z,1.50
2023-05-07T18:31:38.862Z,2.47
2023-05-07T18:34:41.749Z,1.80
2023-05-07T18:37:44.624Z,2.20
2023-05-07T18:40:47.718Z,2.65
2023-05-07T18:43:50.707Z,2.65
2023-05-07T18:46:54.934Z,1.77
2023-05-07T18:49:57.808Z,1.92
2023-05-07T18:53:00.732Z,1.95
2023-05-07T18:56:03.678Z,1.73
2023-05-07T18:59:06.555Z,2.50
2023-05-07T19:02:11.345Z,2.77
2023-05-07T19:05:14.222Z,1.95
2023-05-07T19:08:17.185Z,2.70
2023-05-07T19:11:20.073Z,2.37
2023-05-07T19:14:23.051Z,3.40
2023-05-07T19:17:27.598Z,4.18
2023-05-07T19:20:31.114Z,2.20
2023-05-07T19:23:34.383Z,2.03
2023-05-07T19:26:37.348Z,3.45
2023-05-07T19:29:41.268Z,1.92
2023-05-07T19:32:45.581Z,2.67
2023-05-07T19:35:48.559Z,2.73
2023-05-07T19:38:53.259Z,3.60
2023-05-07T19:41:58.191Z,2.20
2023-05-07T19:45:01.281Z,2.90
2023-05-07T19:48:05.863Z,2.87
2023-05-07T19:51:08.864Z,3.07
2023-05-07T19:54:11.952Z,2.77
2023-05-07T19:57:16.852Z,4.67
2023-05-07T20:00:21.281Z,3.95
2023-05-07T20:03:25.860Z,4.03
2023-05-07T20:06:28.864Z,3.73
2023-05-07T20:09:31.819Z,3.90
2023-05-07T20:12:34.745Z,3.97
2023-05-07T20:15:38.052Z,4.00
2023-05-07T20:18:42.389Z,5.23
2023-05-07T20:21:45.306Z,4.40
2023-05-07T20:24:48.235Z,3.93
2023-05-07T20:27:51.216Z,4.40
2023-05-07T20:30:54.074Z,3.70
2023-05-07T20:33:58.482Z,4.13
2023-05-07T20:37:01.765Z,4.80
2023-05-07T20:40:05.596Z,3.87
2023-05-07T20:43:08.530Z,5.03
2023-05-07T20:46:11.502Z,4.67
2023-05-07T20:49:16.460Z,4.75
2023-05-07T20:52:20.783Z,5.33
2023-05-07T20:55:23.766Z,5.20
2023-05-07T20:58:28.602Z,4.10
2023-05-07T21:01:31.610Z,4.30
2023-05-07T21:04:36.377Z,4.40
2023-05-07T21:07:39.300Z,7.30
2023-05-07T21:10:42.220Z,5.13
2023-05-07T21:13:45.049Z,5.07
2023-05-07T21:16:48.099Z,4.93
2023-05-07T21:19:52.726Z,5.30
2023-05-07T21:22:55.627Z,6.33
2023-05-07T21:25:58.515Z,6.17
2023-05-07T21:29:01.454Z,4.97
2023-05-07T21:32:05.415Z,6.17
2023-05-07T21:35:10.596Z,5.00
2023-05-07T21:38:13.683Z,5.43
2023-05-07T21:41:16.947Z,5.20
2023-05-07T21:44:19.894Z,6.17
2023-05-07T21:47:22.811Z,5.50
2023-05-07T21:50:27.186Z,6.47
2023-05-07T21:53:30.247Z,5.80
2023-05-07T21:56:33.094Z,5.33
2023-05-07T21:59:37.309Z,5.57
2023-05-07T22:02:40.487Z,5.83
2023-05-07T22:05:44.974Z,5.80
2023-05-07T22:08:48.085Z,5.93
2023-05-07T22:11:51.012Z,6.63
2023-05-07T22:14:53.933Z,6.17
2023-05-07T22:17:56.843Z,6.87
2023-05-07T22:21:01.250Z,6.17
2023-05-07T22:24:06.994Z,6.37
2023-05-07T22:27:09.915Z,6.20
2023-05-07T22:30:13.991Z,10.20
2023-05-07T22:33:17.202Z,5.97
2023-05-07T22:36:21.524Z,6.43
2023-05-07T22:39:24.384Z,7.10
2023-05-07T22:42:27.274Z,6.33
2023-05-07T22:45:30.202Z,5.77
2023-05-07T22:48:33.989Z,6.53
2023-05-07T22:51:38.643Z,5.97
2023-05-07T22:54:41.624Z,6.30
2023-05-07T22:57:44.603Z,6.73
2023-05-07T23:00:47.712Z,6.53
2023-05-07T23:03:50.596Z,6.73
2023-05-07T23:06:55.422Z,7.50
2023-05-07T23:09:58.361Z,6.20
2023-05-07T23:13:01.796Z,7.20
2023-05-07T23:16:04.824Z,6.70
2023-05-07T23:19:07.679Z,6.57
2023-05-07T23:22:12.320Z,6.70
2023-05-07T23:25:15.192Z,6.43
2023-05-07T23:28:18.116Z,6.97
2023-05-07T23:31:21.285Z,7.77
2023-05-07T23:34:24.983Z,7.97
2023-05-07T23:37:29.253Z,7.40
2023-05-07T23:40:32.114Z,7.60
2023-05-07T23:43:35.006Z,7.87
2023-05-07T23:46:38.819Z,8.70
2023-05-07T23:49:41.843Z,8.07
2023-05-07T23:52:46.051Z,6.80
2023-05-07T23:55:48.958Z,8.23
2023-05-07T23:58:51.825Z,7.80
